Alvada, Ohio
Current Conditions -  °F | °C
As of 8:53 PM on Tuesday 25 Nov 2014 (Local Time) from KFDY Reporting Station
Overcast Overcast  
Wind Chill: 25°   Ceiling: 2000
Heat Index: 30°   Visibility: 10mi
Dew Point: 21°   Wind: 5mph
Humidity: 69%   Direction: 230°SW
Pressure: 30.2"   Gusts: NA
Location:  41.05°N, 83.4°W
Report Text: KFDY 260153Z AUTO 23004KT 10SM OVC020 M01/M06 A3020 RMK AO2 SLP230 T10111061
Loading
Personal Weather Stations






























Interactive Weather Map New forecast layout! Learn more

10-Day Weather Forecast

Advertisements
Track Severe Weather on mobile